RNA51 VGHS-VNKT
Flight info
| Callsign | RNA51 |
|---|---|
| Flight time | 1h 8m |
| Altitude | 40000 |
| Route | TEGAK1A TEGAK W3 SDP DCT BGD G348 KIMTI KMTI1G |
| Aircraft | A332/H-SDE3GHIJ2J3J5M1RVWXY/LB2D1 |
Departure
| Time | 2026-05-07 20:23 |
|---|---|
| Airport | Hazrat Shahjalal International Airport (VGHS) |
Arrival
| Time | 2026-05-07 21:32 |
|---|---|
| Airport | Tribhuvan International Airport (VNKT) |
| Time | Latitude | Longitude | Altitude | Speed | Heading |
|---|---|---|---|---|---|
| 2026-05-07 19:43 | 23.84789 | 90.40388 | 40 ft | 0 kts | 54° |
| 2026-05-07 20:13 | 23.84782 | 90.40378 | 39 ft | 3 kts | 54° |
| 2026-05-07 20:13 | 23.84769 | 90.40358 | 40 ft | 3 kts | 54° |
| 2026-05-07 20:13 | 23.84757 | 90.40340 | 37 ft | 3 kts | 53° |
| 2026-05-07 20:13 | 23.84743 | 90.40325 | 36 ft | 3 kts | 9° |
| 2026-05-07 20:14 | 23.84723 | 90.40328 | 36 ft | 3 kts | 332° |
| 2026-05-07 20:14 | 23.84709 | 90.40337 | 36 ft | 1 kts | 324° |
| 2026-05-07 20:14 | 23.84706 | 90.40339 | 36 ft | 0 kts | 324° |
| 2026-05-07 20:16 | 23.84712 | 90.40335 | 40 ft | 2 kts | 324° |
| 2026-05-07 20:16 | 23.84733 | 90.40319 | 39 ft | 5 kts | 324° |
| 2026-05-07 20:16 | 23.84768 | 90.40291 | 40 ft | 8 kts | 324° |
| 2026-05-07 20:16 | 23.84818 | 90.40251 | 40 ft | 10 kts | 323° |
| 2026-05-07 20:17 | 23.84881 | 90.40201 | 40 ft | 12 kts | 323° |
| 2026-05-07 20:17 | 23.84964 | 90.40165 | 40 ft | 14 kts | 349° |
| 2026-05-07 20:17 | 23.85048 | 90.40109 | 40 ft | 15 kts | 323° |
| 2026-05-07 20:17 | 23.85139 | 90.40035 | 40 ft | 17 kts | 324° |
| 2026-05-07 20:18 | 23.85172 | 90.39973 | 40 ft | 8 kts | 258° |
| 2026-05-07 20:18 | 23.85141 | 90.39923 | 38 ft | 9 kts | 233° |
| 2026-05-07 20:18 | 23.85109 | 90.39857 | 40 ft | 10 kts | 266° |
| 2026-05-07 20:18 | 23.85153 | 90.39797 | 40 ft | 11 kts | 323° |
| 2026-05-07 20:19 | 23.85224 | 90.39741 | 40 ft | 14 kts | 324° |
| 2026-05-07 20:19 | 23.85307 | 90.39676 | 38 ft | 16 kts | 324° |
| 2026-05-07 20:19 | 23.85401 | 90.39601 | 40 ft | 18 kts | 324° |
| 2026-05-07 20:19 | 23.85507 | 90.39517 | 40 ft | 20 kts | 324° |
| 2026-05-07 20:20 | 23.85623 | 90.39425 | 38 ft | 21 kts | 324° |
| 2026-05-07 20:20 | 23.85742 | 90.39330 | 40 ft | 17 kts | 324° |
| 2026-05-07 20:20 | 23.85769 | 90.39270 | 40 ft | 7 kts | 255° |
| 2026-05-07 20:20 | 23.85738 | 90.39225 | 40 ft | 8 kts | 232° |
| 2026-05-07 20:21 | 23.85696 | 90.39166 | 40 ft | 11 kts | 233° |
| 2026-05-07 20:21 | 23.85648 | 90.39092 | 40 ft | 13 kts | 234° |
| 2026-05-07 20:21 | 23.85589 | 90.39003 | 39 ft | 16 kts | 233° |
| 2026-05-07 20:21 | 23.85520 | 90.38909 | 39 ft | 12 kts | 219° |
| 2026-05-07 20:22 | 23.85448 | 90.38900 | 39 ft | 11 kts | 158° |
| 2026-05-07 20:22 | 23.85400 | 90.38934 | 39 ft | 0 kts | 144° |
| 2026-05-07 20:22 | 23.85376 | 90.38953 | 39 ft | 18 kts | 144° |
| 2026-05-07 20:22 | 23.85073 | 90.39195 | 40 ft | 89 kts | 143° |
| 2026-05-07 20:23 | 23.84387 | 90.39738 | 38 ft | 152 kts | 144° |
| 2026-05-07 20:23 | 23.83410 | 90.40522 | 395 ft | 184 kts | 143° |
| 2026-05-07 20:23 | 23.82388 | 90.41347 | 1337 ft | 180 kts | 144° |
| 2026-05-07 20:23 | 23.81374 | 90.42137 | 2283 ft | 185 kts | 146° |
| 2026-05-07 20:24 | 23.80122 | 90.42583 | 2939 ft | 199 kts | 185° |
| 2026-05-07 20:24 | 23.78912 | 90.41912 | 3725 ft | 201 kts | 230° |
| 2026-05-07 20:24 | 23.78494 | 90.40489 | 4585 ft | 202 kts | 275° |
| 2026-05-07 20:24 | 23.79045 | 90.39108 | 5444 ft | 203 kts | 311° |
| 2026-05-07 20:25 | 23.80225 | 90.38259 | 6269 ft | 209 kts | 334° |
| 2026-05-07 20:25 | 23.81660 | 90.37641 | 6666 ft | 237 kts | 338° |
| 2026-05-07 20:25 | 23.83316 | 90.36982 | 6991 ft | 266 kts | 338° |
| 2026-05-07 20:25 | 23.85063 | 90.36195 | 7694 ft | 275 kts | 328° |
| 2026-05-07 20:26 | 23.86511 | 90.34846 | 8599 ft | 275 kts | 308° |
| 2026-05-07 20:26 | 23.87669 | 90.33184 | 9601 ft | 276 kts | 304° |
| 2026-05-07 20:26 | 23.88765 | 90.31475 | 10388 ft | 284 kts | 303° |
| 2026-05-07 20:26 | 23.89938 | 90.29629 | 10748 ft | 308 kts | 303° |
| 2026-05-07 20:27 | 23.91203 | 90.27647 | 11140 ft | 325 kts | 303° |
| 2026-05-07 20:27 | 23.92516 | 90.25596 | 11844 ft | 333 kts | 303° |
| 2026-05-07 20:27 | 23.93855 | 90.23505 | 12660 ft | 338 kts | 302° |
| 2026-05-07 20:27 | 23.95210 | 90.21387 | 13494 ft | 342 kts | 302° |
| 2026-05-07 20:28 | 23.96580 | 90.19248 | 14228 ft | 346 kts | 302° |
| 2026-05-07 20:28 | 23.97966 | 90.17081 | 14965 ft | 349 kts | 302° |
| 2026-05-07 20:28 | 23.99363 | 90.14897 | 15725 ft | 352 kts | 302° |
| 2026-05-07 20:28 | 24.00773 | 90.12692 | 16479 ft | 355 kts | 301° |
| 2026-05-07 20:29 | 24.02195 | 90.10467 | 17216 ft | 358 kts | 301° |
| 2026-05-07 20:29 | 24.03631 | 90.08220 | 17939 ft | 362 kts | 301° |
| 2026-05-07 20:29 | 24.05079 | 90.05953 | 18577 ft | 365 kts | 301° |
| 2026-05-07 20:29 | 24.06534 | 90.03672 | 18919 ft | 368 kts | 301° |
| 2026-05-07 20:30 | 24.08004 | 90.01369 | 19844 ft | 370 kts | 300° |
| 2026-05-07 20:30 | 24.09484 | 89.99047 | 20460 ft | 373 kts | 300° |
| 2026-05-07 20:30 | 24.10971 | 89.96713 | 21105 ft | 375 kts | 300° |
| 2026-05-07 20:30 | 24.12467 | 89.94366 | 21722 ft | 377 kts | 300° |
| 2026-05-07 20:31 | 24.13973 | 89.92000 | 22320 ft | 380 kts | 299° |
| 2026-05-07 20:31 | 24.15491 | 89.89614 | 22899 ft | 383 kts | 299° |
| 2026-05-07 20:31 | 24.17016 | 89.87215 | 23460 ft | 386 kts | 299° |
| 2026-05-07 20:31 | 24.18556 | 89.84793 | 23920 ft | 389 kts | 298° |
| 2026-05-07 20:32 | 24.20108 | 89.82351 | 24369 ft | 392 kts | 298° |
| 2026-05-07 20:32 | 24.21673 | 89.79888 | 24817 ft | 395 kts | 298° |
| 2026-05-07 20:32 | 24.23247 | 89.77409 | 25257 ft | 398 kts | 298° |
| 2026-05-07 20:32 | 24.24832 | 89.74911 | 25692 ft | 401 kts | 297° |
| 2026-05-07 20:33 | 24.26428 | 89.72395 | 26123 ft | 403 kts | 297° |
| 2026-05-07 20:33 | 24.28033 | 89.69864 | 26554 ft | 406 kts | 297° |
| 2026-05-07 20:33 | 24.29650 | 89.67311 | 26970 ft | 409 kts | 297° |
| 2026-05-07 20:33 | 24.31329 | 89.64817 | 27382 ft | 417 kts | 301° |
| 2026-05-07 20:34 | 24.33385 | 89.62457 | 27794 ft | 429 kts | 309° |
| 2026-05-07 20:34 | 24.35775 | 89.60477 | 28195 ft | 444 kts | 319° |
| 2026-05-07 20:34 | 24.38524 | 89.58834 | 28576 ft | 454 kts | 324° |
| 2026-05-07 20:34 | 24.41399 | 89.57331 | 28984 ft | 461 kts | 326° |
| 2026-05-07 20:35 | 24.44343 | 89.55896 | 29353 ft | 465 kts | 326° |
| 2026-05-07 20:35 | 24.47329 | 89.54483 | 29714 ft | 469 kts | 327° |
| 2026-05-07 20:35 | 24.50332 | 89.53067 | 30042 ft | 472 kts | 326° |
| 2026-05-07 20:35 | 24.53360 | 89.51629 | 30360 ft | 474 kts | 326° |
| 2026-05-07 20:36 | 24.56389 | 89.50176 | 30706 ft | 476 kts | 326° |
| 2026-05-07 20:36 | 24.59423 | 89.48709 | 31053 ft | 477 kts | 326° |
| 2026-05-07 20:36 | 24.62454 | 89.47234 | 31392 ft | 478 kts | 326° |
| 2026-05-07 20:36 | 24.65507 | 89.45742 | 31708 ft | 480 kts | 326° |
| 2026-05-07 20:37 | 24.68554 | 89.44251 | 32082 ft | 480 kts | 326° |
| 2026-05-07 20:37 | 24.71600 | 89.42761 | 32600 ft | 477 kts | 326° |
| 2026-05-07 20:37 | 24.74626 | 89.41283 | 33131 ft | 474 kts | 326° |
| 2026-05-07 20:37 | 24.77633 | 89.39813 | 33605 ft | 472 kts | 326° |
| 2026-05-07 20:38 | 24.80629 | 89.38345 | 34028 ft | 471 kts | 326° |
| 2026-05-07 20:38 | 24.83616 | 89.36879 | 34402 ft | 469 kts | 326° |
| 2026-05-07 20:38 | 24.86594 | 89.35417 | 34789 ft | 468 kts | 326° |
| 2026-05-07 20:38 | 24.89562 | 89.33959 | 35176 ft | 466 kts | 326° |
| 2026-05-07 20:39 | 24.92519 | 89.32507 | 35560 ft | 465 kts | 326° |
| 2026-05-07 20:39 | 24.95469 | 89.31058 | 35928 ft | 463 kts | 326° |
| 2026-05-07 20:39 | 24.98403 | 89.29616 | 36294 ft | 462 kts | 326° |
| 2026-05-07 20:39 | 25.01336 | 89.28174 | 36666 ft | 461 kts | 326° |
| 2026-05-07 20:40 | 25.04262 | 89.26735 | 37075 ft | 460 kts | 326° |
| 2026-05-07 20:40 | 25.07183 | 89.25298 | 37428 ft | 459 kts | 326° |
| 2026-05-07 20:40 | 25.10095 | 89.23863 | 37787 ft | 458 kts | 326° |
| 2026-05-07 20:40 | 25.13000 | 89.22433 | 38163 ft | 456 kts | 326° |
| 2026-05-07 20:41 | 25.15856 | 89.21025 | 38517 ft | 455 kts | 326° |
| 2026-05-07 20:41 | 25.18739 | 89.19604 | 38795 ft | 454 kts | 326° |
| 2026-05-07 20:41 | 25.21622 | 89.18181 | 39045 ft | 454 kts | 326° |
| 2026-05-07 20:41 | 25.24503 | 89.16758 | 39291 ft | 453 kts | 326° |
| 2026-05-07 20:42 | 25.27381 | 89.15335 | 39540 ft | 453 kts | 326° |
| 2026-05-07 20:42 | 25.30257 | 89.13912 | 39767 ft | 453 kts | 326° |
| 2026-05-07 20:42 | 25.33141 | 89.12482 | 39856 ft | 456 kts | 326° |
| 2026-05-07 20:43 | 25.38958 | 89.09593 | 39866 ft | 459 kts | 326° |
| 2026-05-07 20:43 | 25.44785 | 89.06705 | 39867 ft | 459 kts | 326° |
| 2026-05-07 20:44 | 25.50612 | 89.03815 | 39867 ft | 459 kts | 326° |
| 2026-05-07 20:44 | 25.56440 | 89.00921 | 39865 ft | 459 kts | 326° |
| 2026-05-07 20:45 | 25.62266 | 88.98024 | 39867 ft | 459 kts | 326° |
| 2026-05-07 20:45 | 25.68088 | 88.95126 | 39869 ft | 459 kts | 326° |
| 2026-05-07 20:46 | 25.73873 | 88.92243 | 39873 ft | 459 kts | 326° |
| 2026-05-07 20:46 | 25.79511 | 88.89031 | 39872 ft | 454 kts | 321° |
| 2026-05-07 20:47 | 25.85017 | 88.85622 | 39873 ft | 453 kts | 321° |
| 2026-05-07 20:47 | 25.90488 | 88.82181 | 39872 ft | 451 kts | 321° |
| 2026-05-07 20:48 | 25.95944 | 88.78746 | 39882 ft | 450 kts | 320° |
| 2026-05-07 20:48 | 26.01391 | 88.75319 | 39873 ft | 449 kts | 320° |
| 2026-05-07 20:49 | 26.06831 | 88.71897 | 39879 ft | 449 kts | 320° |
| 2026-05-07 20:49 | 26.12263 | 88.68475 | 39875 ft | 449 kts | 320° |
| 2026-05-07 20:50 | 26.17701 | 88.65047 | 39877 ft | 449 kts | 320° |
| 2026-05-07 20:50 | 26.23140 | 88.61615 | 39886 ft | 449 kts | 320° |
| 2026-05-07 20:51 | 26.28577 | 88.58180 | 39888 ft | 449 kts | 320° |
| 2026-05-07 20:51 | 26.34001 | 88.54751 | 39882 ft | 448 kts | 320° |
| 2026-05-07 20:52 | 26.39426 | 88.51316 | 39890 ft | 448 kts | 320° |
| 2026-05-07 20:52 | 26.44848 | 88.47879 | 39895 ft | 448 kts | 320° |
| 2026-05-07 20:53 | 26.50266 | 88.44440 | 39902 ft | 449 kts | 320° |
| 2026-05-07 20:53 | 26.55700 | 88.40988 | 39947 ft | 449 kts | 320° |
| 2026-05-07 20:54 | 26.60215 | 88.38117 | 39909 ft | 450 kts | 320° |
| 2026-05-07 20:54 | 26.65613 | 88.34577 | 39910 ft | 445 kts | 315° |
| 2026-05-07 20:54 | 26.68011 | 88.32464 | 39911 ft | 434 kts | 307° |
| 2026-05-07 20:55 | 26.70047 | 88.30039 | 39911 ft | 422 kts | 299° |
| 2026-05-07 20:55 | 26.73330 | 88.24685 | 39911 ft | 416 kts | 294° |
| 2026-05-07 20:56 | 26.76360 | 88.19182 | 39930 ft | 415 kts | 293° |
| 2026-05-07 20:56 | 26.79382 | 88.13670 | 39934 ft | 415 kts | 294° |
| 2026-05-07 20:57 | 26.82444 | 88.08180 | 39935 ft | 416 kts | 293° |
| 2026-05-07 20:57 | 26.85521 | 88.02697 | 39933 ft | 417 kts | 294° |
| 2026-05-07 20:58 | 26.88604 | 87.97186 | 39968 ft | 418 kts | 294° |
| 2026-05-07 20:58 | 26.91696 | 87.91648 | 39963 ft | 420 kts | 294° |
| 2026-05-07 20:59 | 26.94793 | 87.86102 | 39966 ft | 420 kts | 294° |
| 2026-05-07 20:59 | 26.97886 | 87.80558 | 39987 ft | 420 kts | 294° |
| 2026-05-07 21:00 | 27.00959 | 87.75042 | 39993 ft | 419 kts | 294° |
| 2026-05-07 21:00 | 27.04064 | 87.69456 | 39995 ft | 419 kts | 294° |
| 2026-05-07 21:01 | 27.07128 | 87.63941 | 39994 ft | 420 kts | 294° |
| 2026-05-07 21:01 | 27.10216 | 87.58367 | 40010 ft | 421 kts | 294° |
| 2026-05-07 21:02 | 27.13310 | 87.52778 | 40002 ft | 421 kts | 294° |
| 2026-05-07 21:02 | 27.16401 | 87.47194 | 40018 ft | 421 kts | 294° |
| 2026-05-07 21:03 | 27.19492 | 87.41604 | 40007 ft | 422 kts | 294° |
| 2026-05-07 21:03 | 27.22591 | 87.35996 | 40025 ft | 422 kts | 295° |
| 2026-05-07 21:04 | 27.25687 | 87.30388 | 40033 ft | 423 kts | 295° |
| 2026-05-07 21:04 | 27.28780 | 87.24764 | 39958 ft | 423 kts | 295° |
| 2026-05-07 21:04 | 27.30315 | 87.21962 | 39739 ft | 418 kts | 293° |
| 2026-05-07 21:05 | 27.31516 | 87.19052 | 39551 ft | 402 kts | 283° |
| 2026-05-07 21:05 | 27.32265 | 87.16079 | 39437 ft | 391 kts | 279° |
| 2026-05-07 21:05 | 27.32894 | 87.13122 | 39138 ft | 388 kts | 278° |
| 2026-05-07 21:05 | 27.33493 | 87.10156 | 38644 ft | 389 kts | 278° |
| 2026-05-07 21:06 | 27.34082 | 87.07193 | 38164 ft | 388 kts | 278° |
| 2026-05-07 21:06 | 27.34666 | 87.04236 | 37704 ft | 386 kts | 278° |
| 2026-05-07 21:06 | 27.35246 | 87.01294 | 37267 ft | 385 kts | 278° |
| 2026-05-07 21:06 | 27.35821 | 86.98360 | 36804 ft | 385 kts | 278° |
| 2026-05-07 21:07 | 27.36395 | 86.95413 | 36359 ft | 386 kts | 278° |
| 2026-05-07 21:07 | 27.36967 | 86.92462 | 35833 ft | 386 kts | 278° |
| 2026-05-07 21:07 | 27.37549 | 86.89513 | 35383 ft | 387 kts | 278° |
| 2026-05-07 21:07 | 27.38133 | 86.86544 | 34817 ft | 390 kts | 278° |
| 2026-05-07 21:08 | 27.38709 | 86.83593 | 34256 ft | 392 kts | 278° |
| 2026-05-07 21:08 | 27.39297 | 86.80576 | 33545 ft | 397 kts | 278° |
| 2026-05-07 21:08 | 27.39890 | 86.77530 | 32870 ft | 400 kts | 278° |
| 2026-05-07 21:08 | 27.40486 | 86.74469 | 32191 ft | 403 kts | 278° |
| 2026-05-07 21:09 | 27.41088 | 86.71368 | 31491 ft | 408 kts | 278° |
| 2026-05-07 21:09 | 27.41703 | 86.68201 | 30957 ft | 408 kts | 279° |
| 2026-05-07 21:09 | 27.42301 | 86.65126 | 30503 ft | 407 kts | 279° |
| 2026-05-07 21:09 | 27.42904 | 86.62012 | 29989 ft | 407 kts | 279° |
| 2026-05-07 21:10 | 27.43505 | 86.58904 | 29461 ft | 405 kts | 279° |
| 2026-05-07 21:10 | 27.44102 | 86.55816 | 28949 ft | 404 kts | 279° |
| 2026-05-07 21:10 | 27.44700 | 86.52721 | 28441 ft | 404 kts | 279° |
| 2026-05-07 21:10 | 27.45294 | 86.49640 | 27929 ft | 401 kts | 279° |
| 2026-05-07 21:11 | 27.45883 | 86.46578 | 27415 ft | 399 kts | 279° |
| 2026-05-07 21:11 | 27.46466 | 86.43542 | 26904 ft | 397 kts | 279° |
| 2026-05-07 21:11 | 27.47627 | 86.37488 | 25858 ft | 394 kts | 279° |
| 2026-05-07 21:12 | 27.48203 | 86.34482 | 25374 ft | 392 kts | 280° |
| 2026-05-07 21:12 | 27.48776 | 86.31485 | 24846 ft | 391 kts | 280° |
| 2026-05-07 21:12 | 27.49347 | 86.28494 | 24338 ft | 390 kts | 280° |
| 2026-05-07 21:12 | 27.49831 | 86.25492 | 23842 ft | 389 kts | 277° |
| 2026-05-07 21:13 | 27.50205 | 86.22484 | 23307 ft | 387 kts | 276° |
| 2026-05-07 21:13 | 27.50557 | 86.19491 | 22774 ft | 385 kts | 276° |
| 2026-05-07 21:13 | 27.50907 | 86.16511 | 22269 ft | 382 kts | 276° |
| 2026-05-07 21:13 | 27.51254 | 86.13552 | 21752 ft | 380 kts | 276° |
| 2026-05-07 21:14 | 27.51601 | 86.10612 | 21257 ft | 378 kts | 276° |
| 2026-05-07 21:14 | 27.51946 | 86.07686 | 20751 ft | 376 kts | 276° |
| 2026-05-07 21:14 | 27.52290 | 86.04778 | 20260 ft | 373 kts | 276° |
| 2026-05-07 21:14 | 27.52630 | 86.01889 | 19758 ft | 371 kts | 276° |
| 2026-05-07 21:15 | 27.52967 | 85.99019 | 19340 ft | 368 kts | 277° |
| 2026-05-07 21:15 | 27.53297 | 85.96216 | 19250 ft | 353 kts | 277° |
| 2026-05-07 21:15 | 27.53614 | 85.93523 | 19157 ft | 341 kts | 277° |
| 2026-05-07 21:15 | 27.53920 | 85.90915 | 19005 ft | 331 kts | 277° |
| 2026-05-07 21:16 | 27.54216 | 85.88383 | 18859 ft | 321 kts | 277° |
| 2026-05-07 21:16 | 27.54503 | 85.85942 | 18593 ft | 317 kts | 277° |
| 2026-05-07 21:16 | 27.54983 | 85.83467 | 18128 ft | 321 kts | 285° |
| 2026-05-07 21:16 | 27.55624 | 85.81069 | 17742 ft | 320 kts | 287° |
| 2026-05-07 21:17 | 27.56285 | 85.78714 | 17386 ft | 318 kts | 287° |
| 2026-05-07 21:17 | 27.56952 | 85.76347 | 17016 ft | 317 kts | 287° |
| 2026-05-07 21:17 | 27.57615 | 85.73981 | 16651 ft | 316 kts | 287° |
| 2026-05-07 21:17 | 27.58274 | 85.71621 | 16267 ft | 315 kts | 287° |
| 2026-05-07 21:18 | 27.58930 | 85.69268 | 15903 ft | 314 kts | 287° |
| 2026-05-07 21:18 | 27.59583 | 85.66920 | 15536 ft | 313 kts | 287° |
| 2026-05-07 21:18 | 27.60158 | 85.64556 | 15163 ft | 312 kts | 279° |
| 2026-05-07 21:18 | 27.60147 | 85.62133 | 14802 ft | 311 kts | 257° |
| 2026-05-07 21:19 | 27.59310 | 85.59904 | 14396 ft | 311 kts | 237° |
| 2026-05-07 21:19 | 27.58039 | 85.57933 | 13955 ft | 312 kts | 232° |
| 2026-05-07 21:19 | 27.56693 | 85.56026 | 13551 ft | 310 kts | 231° |
| 2026-05-07 21:19 | 27.55355 | 85.54140 | 13166 ft | 306 kts | 231° |
| 2026-05-07 21:20 | 27.54037 | 85.52269 | 12804 ft | 303 kts | 232° |
| 2026-05-07 21:20 | 27.52733 | 85.50405 | 12444 ft | 302 kts | 232° |
| 2026-05-07 21:20 | 27.51438 | 85.48549 | 12061 ft | 300 kts | 232° |
| 2026-05-07 21:20 | 27.50155 | 85.46706 | 11694 ft | 299 kts | 232° |
| 2026-05-07 21:21 | 27.48876 | 85.44868 | 11325 ft | 297 kts | 232° |
| 2026-05-07 21:21 | 27.47604 | 85.43039 | 10959 ft | 296 kts | 232° |
| 2026-05-07 21:21 | 27.46338 | 85.41218 | 10616 ft | 295 kts | 232° |
| 2026-05-07 21:21 | 27.45075 | 85.39403 | 10483 ft | 295 kts | 232° |
| 2026-05-07 21:22 | 27.43809 | 85.37585 | 10475 ft | 295 kts | 232° |
| 2026-05-07 21:22 | 27.42545 | 85.35769 | 10473 ft | 295 kts | 232° |
| 2026-05-07 21:22 | 27.41279 | 85.33951 | 10458 ft | 295 kts | 232° |
| 2026-05-07 21:22 | 27.40012 | 85.32133 | 10455 ft | 295 kts | 232° |
| 2026-05-07 21:23 | 27.38763 | 85.30341 | 10429 ft | 284 kts | 233° |
| 2026-05-07 21:23 | 27.37593 | 85.28665 | 10428 ft | 268 kts | 233° |
| 2026-05-07 21:23 | 27.36450 | 85.27027 | 10422 ft | 259 kts | 233° |
| 2026-05-07 21:23 | 27.35358 | 85.25461 | 10413 ft | 257 kts | 233° |
| 2026-05-07 21:24 | 27.34433 | 85.23774 | 10310 ft | 252 kts | 254° |
| 2026-05-07 21:24 | 27.34425 | 85.21840 | 9973 ft | 252 kts | 289° |
| 2026-05-07 21:24 | 27.35453 | 85.20269 | 9600 ft | 255 kts | 325° |
| 2026-05-07 21:24 | 27.37128 | 85.19683 | 9266 ft | 257 kts | 1° |
| 2026-05-07 21:25 | 27.38811 | 85.20308 | 8937 ft | 259 kts | 33° |
| 2026-05-07 21:25 | 27.40232 | 85.21495 | 8856 ft | 248 kts | 37° |
| 2026-05-07 21:25 | 27.41612 | 85.22563 | 8733 ft | 235 kts | 32° |
| 2026-05-07 21:25 | 27.43013 | 85.23482 | 8661 ft | 232 kts | 28° |
| 2026-05-07 21:26 | 27.44480 | 85.24234 | 8634 ft | 233 kts | 13° |
| 2026-05-07 21:26 | 27.46087 | 85.24473 | 8631 ft | 234 kts | 6° |
| 2026-05-07 21:26 | 27.47706 | 85.24570 | 8614 ft | 233 kts | 355° |
| 2026-05-07 21:26 | 27.49276 | 85.24241 | 8410 ft | 227 kts | 346° |
| 2026-05-07 21:27 | 27.50777 | 85.23849 | 8271 ft | 216 kts | 350° |
| 2026-05-07 21:27 | 27.52246 | 85.23705 | 8106 ft | 210 kts | 1° |
| 2026-05-07 21:27 | 27.53680 | 85.23912 | 7860 ft | 207 kts | 14° |
| 2026-05-07 21:27 | 27.55029 | 85.24472 | 7575 ft | 206 kts | 27° |
| 2026-05-07 21:28 | 27.56234 | 85.25339 | 7306 ft | 205 kts | 38° |
| 2026-05-07 21:28 | 27.57342 | 85.26346 | 7040 ft | 204 kts | 40° |
| 2026-05-07 21:28 | 27.58378 | 85.27423 | 6801 ft | 202 kts | 47° |
| 2026-05-07 21:28 | 27.59238 | 85.28626 | 6711 ft | 190 kts | 55° |
| 2026-05-07 21:29 | 27.59976 | 85.29778 | 6574 ft | 171 kts | 55° |
| 2026-05-07 21:29 | 27.60674 | 85.30784 | 6376 ft | 157 kts | 50° |
| 2026-05-07 21:29 | 27.61418 | 85.31635 | 6142 ft | 148 kts | 42° |
| 2026-05-07 21:29 | 27.62220 | 85.32339 | 5846 ft | 144 kts | 34° |
| 2026-05-07 21:30 | 27.63075 | 85.32908 | 5532 ft | 142 kts | 27° |
| 2026-05-07 21:30 | 27.63970 | 85.33354 | 5229 ft | 140 kts | 22° |
| 2026-05-07 21:30 | 27.64875 | 85.33759 | 5011 ft | 140 kts | 21° |
| 2026-05-07 21:30 | 27.65767 | 85.34158 | 4828 ft | 140 kts | 21° |
| 2026-05-07 21:31 | 27.66668 | 85.34562 | 4648 ft | 139 kts | 21° |
| 2026-05-07 21:31 | 27.67575 | 85.34974 | 4484 ft | 139 kts | 22° |
| 2026-05-07 21:31 | 27.68472 | 85.35376 | 4340 ft | 139 kts | 20° |
| 2026-05-07 21:31 | 27.69264 | 85.35735 | 4367 ft | 100 kts | 22° |
| 2026-05-07 21:32 | 27.69778 | 85.35969 | 4400 ft | 70 kts | 22° |
| 2026-05-07 21:32 | 27.70083 | 85.36108 | 4405 ft | 20 kts | 22° |
| 2026-05-07 21:32 | 27.70185 | 85.36105 | 4408 ft | 12 kts | 323° |
| 2026-05-07 21:32 | 27.70177 | 85.36034 | 4407 ft | 10 kts | 213° |
| 2026-05-07 21:33 | 27.70162 | 85.36027 | 4406 ft | 0 kts | 202° |
| 2026-05-07 21:33 | 27.70156 | 85.36024 | 4406 ft | 0 kts | 202° |
| 2026-05-07 21:33 | 27.70145 | 85.36019 | 4405 ft | 4 kts | 202° |
| 2026-05-07 21:33 | 27.70103 | 85.36000 | 4404 ft | 8 kts | 202° |
| 2026-05-07 21:34 | 27.70056 | 85.35979 | 4402 ft | 6 kts | 202° |
| 2026-05-07 21:34 | 27.70015 | 85.35960 | 4401 ft | 7 kts | 202° |
| 2026-05-07 21:34 | 27.69974 | 85.35942 | 4401 ft | 5 kts | 202° |
| 2026-05-07 21:34 | 27.69941 | 85.35927 | 4401 ft | 5 kts | 202° |
| 2026-05-07 21:35 | 27.69905 | 85.35910 | 4400 ft | 5 kts | 202° |
| 2026-05-07 21:35 | 27.69868 | 85.35893 | 4399 ft | 6 kts | 202° |
| 2026-05-07 21:35 | 27.69826 | 85.35874 | 4398 ft | 6 kts | 202° |
| 2026-05-07 21:35 | 27.69791 | 85.35851 | 4396 ft | 4 kts | 236° |
| 2026-05-07 21:36 | 27.69794 | 85.35825 | 4394 ft | 3 kts | 290° |
| 2026-05-07 21:36 | 27.69806 | 85.35791 | 4389 ft | 2 kts | 291° |
| 2026-05-07 21:36 | 27.69811 | 85.35777 | 4388 ft | 0 kts | 291° |